Time;durP1;ratioP1;P1;durP2;ratioP2;P2;SDS_P1;SDS_P2;PMS_P1;PMS_P2;Temp;Humidity;BMP_temperature;BMP_pressure;BME280_temperature;BME280_humidity;BME280_pressure;Samples;Min_cycle;Max_cycle;Signal;HPM_P1;HPM_P2
2021/12/06 00:00:09;;;;;;;38.90;13.40;;;;;;;-0.17;100.00;98510.02;104672;1304;24205;-28
2021/12/06 00:02:35;;;;;;;35.90;11.40;;;;;;;-0.18;100.00;98517.38;104504;1308;22805;-23
2021/12/06 00:05:01;;;;;;;34.80;14.40;;;;;;;-0.20;100.00;98514.41;104918;1305;24140;-28
2021/12/06 00:07:27;;;;;;;20.80;7.50;;;;;;;-0.20;100.00;98519.45;104853;1304;22750;-28
2021/12/06 00:09:52;;;;;;;52.80;19.10;;;;;;;-0.20;100.00;98519.17;104734;1304;22656;-24
2021/12/06 00:12:18;;;;;;;47.70;12.70;;;;;;;-0.19;100.00;98516.52;104818;1304;22461;-24
2021/12/06 00:14:45;;;;;;;21.40;9.80;;;;;;;-0.12;100.00;98519.69;104727;1304;22586;-28
2021/12/06 00:17:12;;;;;;;44.30;15.00;;;;;;;-0.09;100.00;98527.71;104253;1307;22460;-28
2021/12/06 00:19:38;;;;;;;42.10;14.90;;;;;;;-0.15;100.00;98530.41;104933;1302;23785;-25
2021/12/06 00:22:07;;;;;;;42.90;15.00;;;;;;;-0.11;100.00;98534.02;104869;1304;22712;-24
2021/12/06 00:24:32;;;;;;;62.70;14.10;;;;;;;-0.11;100.00;98538.06;104814;1304;22590;-24
2021/12/06 00:26:58;;;;;;;46.10;16.40;;;;;;;-0.20;100.00;98537.52;104820;1297;22545;-24
2021/12/06 00:29:24;;;;;;;55.40;14.50;;;;;;;-0.20;100.00;98536.73;104768;1304;24302;-29
2021/12/06 00:31:51;;;;;;;67.80;18.00;;;;;;;-0.12;100.00;98526.73;104576;1305;22486;-28
2021/12/06 00:34:18;;;;;;;43.50;13.90;;;;;;;-0.14;100.00;98521.48;104486;1304;23123;-25
2021/12/06 00:36:53;;;;;;;39.60;13.10;;;;;;;-0.12;100.00;98520.73;104840;1304;24239;-28
2021/12/06 00:39:20;;;;;;;37.40;11.10;;;;;;;-0.08;100.00;98529.31;104847;1304;22477;-24
2021/12/06 00:41:46;;;;;;;41.60;15.20;;;;;;;-0.05;100.00;98532.02;104693;1304;24289;-29
2021/12/06 00:44:12;;;;;;;35.20;13.70;;;;;;;-0.03;100.00;98530.75;104717;1304;22447;-28
2021/12/06 00:46:39;;;;;;;49.80;14.20;;;;;;;-0.07;100.00;98533.66;104358;1304;22496;-24
2021/12/06 00:49:06;;;;;;;36.30;14.20;;;;;;;-0.06;100.00;98536.07;104846;1304;22473;-24
2021/12/06 00:51:32;;;;;;;47.30;15.40;;;;;;;-0.06;100.00;98536.16;104833;1304;22455;-28
2021/12/06 00:53:58;;;;;;;45.70;15.60;;;;;;;-0.09;100.00;98536.46;104878;1304;22548;-28
2021/12/06 00:56:23;;;;;;;38.20;16.00;;;;;;;-0.13;100.00;98539.54;104957;1302;24162;-28
2021/12/06 00:58:49;;;;;;;33.90;11.50;;;;;;;-0.08;100.00;98539.55;104891;1304;22575;-24
2021/12/06 01:01:15;;;;;;;55.10;16.80;;;;;;;-0.18;100.00;98545.58;104849;1304;24153;-29
2021/12/06 01:03:41;;;;;;;61.80;18.70;;;;;;;-0.16;100.00;98551.98;105078;1304;22470;-27
2021/12/06 01:06:08;;;;;;;40.70;17.60;;;;;;;-0.18;100.00;98557.81;104546;1307;23894;-28
2021/12/06 01:08:34;;;;;;;47.00;16.90;;;;;;;-0.14;100.00;98563.17;104819;1304;22473;-24
2021/12/06 01:11:00;;;;;;;58.20;21.20;;;;;;;-0.04;100.00;98564.20;104646;1304;24251;-27
2021/12/06 01:13:26;;;;;;;52.90;18.80;;;;;;;-0.02;100.00;98566.42;104666;1304;24305;-24
2021/12/06 01:15:54;;;;;;;59.80;18.70;;;;;;;-0.01;100.00;98569.38;104637;1304;22567;-24
2021/12/06 01:18:20;;;;;;;56.80;19.50;;;;;;;-0.11;100.00;98571.34;104691;1304;24271;-29
2021/12/06 01:20:53;;;;;;;48.90;18.80;;;;;;;-0.08;100.00;98570.42;104551;1304;24297;-28
2021/12/06 01:23:22;;;;;;;78.00;20.90;;;;;;;-0.09;100.00;98568.52;104915;1304;22557;-29
2021/12/06 01:40:37;;;;;;;57.30;18.10;;;;;;;-0.20;100.00;98570.11;104195;1308;22483;-25
2021/12/06 01:43:04;;;;;;;62.70;21.30;;;;;;;-0.34;100.00;98577.84;104344;1304;24867;-29
2021/12/06 01:45:30;;;;;;;46.20;16.10;;;;;;;-0.29;100.00;98574.86;104221;1304;22476;-29
2021/12/06 01:47:56;;;;;;;58.20;18.10;;;;;;;-0.19;100.00;98568.33;104666;1304;24256;-28
2021/12/06 01:50:24;;;;;;;54.20;19.80;;;;;;;-0.24;100.00;98575.77;104148;1304;24164;-28
2021/12/06 01:52:53;;;;;;;51.60;18.10;;;;;;;-0.25;100.00;98576.75;104288;1309;25319;-28
2021/12/06 01:55:21;;;;;;;52.30;18.60;;;;;;;-0.27;100.00;98575.34;104683;1304;24223;-25
2021/12/06 01:57:47;;;;;;;58.50;20.70;;;;;;;-0.39;100.00;98582.52;104575;1304;24194;-24
2021/12/06 02:00:18;;;;;;;57.30;20.70;;;;;;;-0.41;100.00;98582.75;104772;1298;24295;-24
2021/12/06 02:02:44;;;;;;;59.50;16.60;;;;;;;-0.42;100.00;98583.02;104804;1304;22434;-24
2021/12/06 02:05:10;;;;;;;63.20;19.30;;;;;;;-0.44;100.00;98584.43;104376;1307;22531;-24
2021/12/06 02:07:35;;;;;;;41.70;17.90;;;;;;;-0.48;100.00;98583.54;104732;1304;24269;-27
2021/12/06 02:10:02;;;;;;;46.50;16.90;;;;;;;-0.43;100.00;98584.29;104492;1310;22537;-29
2021/12/06 02:12:31;;;;;;;56.30;19.60;;;;;;;-0.39;100.00;98586.25;104833;1304;24180;-24
2021/12/06 02:17:31;;;;;;;53.50;20.00;;;;;;;-0.53;100.00;98582.22;104690;1304;22475;-26
2021/12/06 02:20:05;;;;;;;49.50;17.60;;;;;;;-0.48;100.00;98585.31;104379;1307;22473;-27
2021/12/06 02:22:33;;;;;;;51.00;19.50;;;;;;;-0.47;100.00;98580.48;104980;1304;24178;-29
2021/12/06 02:25:01;;;;;;;56.70;19.50;;;;;;;-0.51;100.00;98581.36;105020;1304;24335;-24
2021/12/06 02:27:27;;;;;;;64.40;19.20;;;;;;;-0.59;100.00;98587.09;104195;1304;741231;-25
2021/12/06 02:29:54;;;;;;;51.80;18.60;;;;;;;-0.59;100.00;98581.42;104463;1307;22435;-29
2021/12/06 02:32:21;;;;;;;45.40;14.20;;;;;;;-0.62;100.00;98568.55;104543;1307;22562;-29
2021/12/06 02:34:49;;;;;;;40.70;13.50;;;;;;;-0.65;100.00;98555.24;104707;1304;24330;-25
2021/12/06 02:37:20;;;;;;;69.60;18.80;;;;;;;-0.56;100.00;98555.88;104252;1308;22447;-24
2021/12/06 02:39:46;;;;;;;59.10;19.70;;;;;;;-0.44;100.00;98566.96;104766;1304;25287;-28
2021/12/06 02:42:14;;;;;;;53.70;18.70;;;;;;;-0.33;100.00;98582.23;104672;1304;22483;-29
2021/12/06 02:44:40;;;;;;;71.80;19.00;;;;;;;-0.26;100.00;98587.81;105093;1304;22470;-24
2021/12/06 02:47:06;;;;;;;64.30;18.60;;;;;;;-0.32;100.00;98588.21;105104;1304;22486;-24
2021/12/06 02:49:32;;;;;;;62.60;19.60;;;;;;;-0.46;100.00;98589.30;104732;1304;22542;-24
2021/12/06 02:51:58;;;;;;;61.90;19.10;;;;;;;-0.42;100.00;98588.25;104784;1304;24338;-28
2021/12/06 02:54:26;;;;;;;61.20;22.50;;;;;;;-0.52;100.00;98591.66;104441;1307;22453;-28
2021/12/06 02:56:56;;;;;;;54.80;21.80;;;;;;;-0.57;100.00;98592.98;104858;1304;24338;-25
2021/12/06 02:59:25;;;;;;;85.20;23.20;;;;;;;-0.69;100.00;98603.98;104703;1304;25215;-29
2021/12/06 03:01:56;;;;;;;69.70;22.90;;;;;;;-0.65;100.00;98607.87;104683;1304;22492;-28
2021/12/06 03:04:22;;;;;;;51.10;19.80;;;;;;;-0.58;100.00;98611.41;104852;1304;24172;-25
2021/12/06 03:06:53;;;;;;;53.00;19.20;;;;;;;-0.61;100.00;98617.32;104551;1304;22467;-28
2021/12/06 03:09:21;;;;;;;51.40;19.40;;;;;;;-0.71;100.00;98623.35;104750;1304;22520;-29
2021/12/06 03:11:48;;;;;;;59.20;21.10;;;;;;;-0.75;100.00;98632.70;104823;1304;24237;-29
2021/12/06 03:14:17;;;;;;;60.20;23.40;;;;;;;-0.75;100.00;98642.21;104766;1304;23734;-29
2021/12/06 03:16:43;;;;;;;62.40;19.80;;;;;;;-0.80;100.00;98646.20;104875;1304;22576;-25
2021/12/06 03:19:09;;;;;;;49.60;17.80;;;;;;;-0.83;100.00;98652.77;105076;1304;22474;-23
2021/12/06 03:21:35;;;;;;;52.60;17.20;;;;;;;-0.78;100.00;98656.71;104739;1305;23862;-24
2021/12/06 03:24:02;;;;;;;51.30;19.10;;;;;;;-0.79;100.00;98667.52;104951;1304;25216;-24
2021/12/06 03:26:28;;;;;;;65.00;25.00;;;;;;;-0.82;100.00;98667.29;104858;1304;24299;-28
2021/12/06 03:28:54;;;;;;;66.20;22.90;;;;;;;-0.82;100.00;98669.58;104965;1304;24404;-23
2021/12/06 03:31:21;;;;;;;66.10;21.00;;;;;;;-0.81;100.00;98666.96;104553;1304;25309;-28
2021/12/06 03:33:49;;;;;;;61.00;21.40;;;;;;;-0.79;100.00;98659.98;104485;1304;24167;-24
2021/12/06 03:36:16;;;;;;;63.70;20.30;;;;;;;-0.81;100.00;98652.39;104890;1304;24144;-28
2021/12/06 03:38:42;;;;;;;68.60;22.40;;;;;;;-0.87;100.00;98641.05;104690;1304;22486;-24
2021/12/06 03:41:09;;;;;;;59.70;17.40;;;;;;;-0.94;100.00;98639.40;104715;1304;22474;-28
2021/12/06 03:43:35;;;;;;;62.10;20.10;;;;;;;-0.89;100.00;98648.38;105006;1301;22579;-28
2021/12/06 03:46:01;;;;;;;58.10;16.40;;;;;;;-0.86;100.00;98662.33;105044;1304;24146;-24
2021/12/06 03:48:27;;;;;;;51.30;17.90;;;;;;;-0.75;100.00;98669.60;104831;1304;22458;-28
2021/12/06 03:50:53;;;;;;;61.00;20.30;;;;;;;-0.64;100.00;98673.48;104827;1304;24228;-30
2021/12/06 03:53:19;;;;;;;57.10;18.30;;;;;;;-0.61;100.00;98673.77;104894;1304;22441;-29
2021/12/06 03:55:46;;;;;;;59.60;20.40;;;;;;;-0.64;100.00;98672.96;104658;1304;24141;-24
2021/12/06 03:58:12;;;;;;;72.10;24.40;;;;;;;-0.64;100.00;98676.98;104552;1306;24283;-25
2021/12/06 04:00:37;;;;;;;73.20;21.00;;;;;;;-0.71;100.00;98669.54;104731;1304;22473;-24
2021/12/06 04:03:03;;;;;;;76.10;19.20;;;;;;;-0.81;100.00;98663.65;104239;1307;22538;-29
2021/12/06 04:05:29;;;;;;;69.40;22.60;;;;;;;-0.93;100.00;98659.98;104546;1307;23241;-28
2021/12/06 04:07:55;;;;;;;68.10;23.20;;;;;;;-1.03;100.00;98649.72;104893;1304;22611;-24
2021/12/06 04:10:25;;;;;;;48.30;18.40;;;;;;;-1.00;100.00;98641.64;104724;1304;22715;-30
2021/12/06 04:12:55;;;;;;;53.90;18.70;;;;;;;-1.05;100.00;98644.23;104814;1304;22573;-24
2021/12/06 04:15:22;;;;;;;48.90;19.50;;;;;;;-1.07;100.00;98643.78;104317;1307;23895;-28
2021/12/06 04:17:47;;;;;;;63.00;19.90;;;;;;;-0.98;100.00;98650.26;104805;1304;23972;-24
2021/12/06 04:20:14;;;;;;;75.90;19.30;;;;;;;-0.92;100.00;98657.10;104840;1304;24230;-24
2021/12/06 04:22:40;;;;;;;64.10;21.70;;;;;;;-0.84;100.00;98662.16;105038;1304;24266;-24
2021/12/06 04:25:09;;;;;;;58.60;19.90;;;;;;;-0.86;100.00;98663.61;104656;1304;23316;-24
2021/12/06 04:27:35;;;;;;;73.50;20.30;;;;;;;-0.91;100.00;98661.92;104791;1304;22489;-24
2021/12/06 04:30:03;;;;;;;54.60;20.40;;;;;;;-0.87;100.00;98658.77;104800;1304;22538;-24
2021/12/06 04:32:29;;;;;;;59.80;19.80;;;;;;;-0.99;100.00;98660.02;104669;1307;22576;-28
2021/12/06 04:34:55;;;;;;;68.10;23.20;;;;;;;-1.03;100.00;98662.20;104784;1304;22758;-24
2021/12/06 04:37:21;;;;;;;68.30;20.40;;;;;;;-1.12;100.00;98658.48;104926;1304;24177;-24
2021/12/06 04:39:47;;;;;;;71.60;23.40;;;;;;;-1.11;100.00;98658.55;104391;1307;24345;-28
2021/12/06 04:42:13;;;;;;;72.80;20.90;;;;;;;-1.09;100.00;98664.11;104628;1304;24343;-24
2021/12/06 04:44:39;;;;;;;64.00;18.70;;;;;;;-0.98;100.00;98668.90;104513;1307;22514;-24
2021/12/06 04:47:05;;;;;;;92.70;24.70;;;;;;;-0.95;100.00;98670.98;104489;1308;24356;-24
2021/12/06 04:49:31;;;;;;;82.80;22.10;;;;;;;-0.91;100.00;98678.27;104803;1304;24144;-29
2021/12/06 04:51:59;;;;;;;56.00;19.70;;;;;;;-0.92;100.00;98680.63;104694;1304;22517;-28
2021/12/06 04:54:28;;;;;;;55.20;14.90;;;;;;;-0.99;100.00;98681.17;104746;1304;26066;-28
2021/12/06 04:56:59;;;;;;;67.50;20.60;;;;;;;-1.06;100.00;98685.34;104573;1304;23820;-29
2021/12/06 04:59:31;;;;;;;72.60;21.00;;;;;;;-0.99;100.00;98686.74;104819;1304;22461;-24
2021/12/06 05:01:58;;;;;;;74.40;19.10;;;;;;;-0.86;100.00;98689.97;104552;1304;24154;-23
2021/12/06 05:04:27;;;;;;;79.00;22.90;;;;;;;-0.79;100.00;98694.54;104855;1304;22554;-29
2021/12/06 05:06:57;;;;;;;65.00;17.40;;;;;;;-0.74;100.00;98698.84;104746;1304;22572;-25
2021/12/06 05:09:27;;;;;;;73.70;23.20;;;;;;;-0.75;100.00;98707.23;104830;1304;24346;-28
2021/12/06 05:11:53;;;;;;;69.50;19.80;;;;;;;-0.81;100.00;98710.77;104480;1305;23833;-28
2021/12/06 05:14:19;;;;;;;65.20;18.50;;;;;;;-0.81;100.00;98712.91;104506;1304;24177;-24
2021/12/06 05:16:44;;;;;;;85.50;22.30;;;;;;;-0.71;100.00;98716.01;104888;1304;23435;-29
2021/12/06 05:19:10;;;;;;;81.80;22.90;;;;;;;-0.86;100.00;98724.52;104518;1303;24167;-24
2021/12/06 05:21:36;;;;;;;76.80;20.50;;;;;;;-0.90;100.00;98726.33;104457;1304;24162;-28
2021/12/06 05:24:03;;;;;;;89.90;23.40;;;;;;;-0.95;100.00;98734.91;104600;1304;24330;-24
2021/12/06 05:26:29;;;;;;;55.50;16.00;;;;;;;-0.96;100.00;98740.77;104905;1304;24289;-24
2021/12/06 05:28:59;;;;;;;61.70;17.50;;;;;;;-0.96;100.00;98742.01;104740;1304;22978;-28
2021/12/06 05:31:26;;;;;;;72.20;21.90;;;;;;;-1.09;100.00;98750.21;104740;1304;24123;-24
2021/12/06 05:33:55;;;;;;;63.90;21.60;;;;;;;-1.13;100.00;98753.02;104343;1304;22477;-24
2021/12/06 05:36:21;;;;;;;72.90;19.50;;;;;;;-1.23;100.00;98758.48;104666;1304;24315;-28
2021/12/06 05:38:50;;;;;;;74.10;21.40;;;;;;;-1.27;100.00;98763.93;104539;1305;24353;-28
2021/12/06 05:41:16;;;;;;;63.80;18.30;;;;;;;-1.21;100.00;98762.67;104161;1310;25276;-28
2021/12/06 05:43:42;;;;;;;62.50;19.20;;;;;;;-1.23;100.00;98765.91;104633;1308;24394;-25
2021/12/06 05:46:08;;;;;;;61.60;18.10;;;;;;;-1.20;100.00;98771.06;104681;1304;24269;-28
2021/12/06 05:48:33;;;;;;;65.70;23.10;;;;;;;-1.17;100.00;98774.98;104785;1304;22665;-28
2021/12/06 05:50:59;;;;;;;71.60;22.40;;;;;;;-1.14;100.00;98772.43;104642;1304;24424;-24
2021/12/06 05:53:25;;;;;;;77.70;22.90;;;;;;;-1.07;100.00;98766.02;104794;1301;22453;-26
2021/12/06 05:55:51;;;;;;;74.70;17.90;;;;;;;-1.04;100.00;98762.87;104686;1304;24253;-24
2021/12/06 05:58:20;;;;;;;85.40;23.60;;;;;;;-1.05;100.00;98765.80;104352;1304;22437;-28
2021/12/06 06:00:46;;;;;;;75.80;17.70;;;;;;;-1.10;100.00;98767.46;104462;1303;22546;-29
2021/12/06 06:03:11;;;;;;;74.80;18.30;;;;;;;-1.08;100.00;98771.50;104584;1304;24180;-28
2021/12/06 06:05:38;;;;;;;87.70;24.10;;;;;;;-0.93;100.00;98770.18;104576;1304;22476;-24
2021/12/06 06:08:04;;;;;;;65.40;19.90;;;;;;;-0.93;100.00;98772.00;104186;1304;23829;-29
2021/12/06 06:10:31;;;;;;;68.80;22.10;;;;;;;-0.98;100.00;98774.71;104366;1309;24134;-28
2021/12/06 06:12:59;;;;;;;61.90;16.20;;;;;;;-0.96;100.00;98772.61;104191;1304;24404;-29
2021/12/06 06:15:26;;;;;;;87.90;22.70;;;;;;;-1.00;100.00;98770.95;104529;1304;22508;-29
2021/12/06 06:17:52;;;;;;;62.60;19.60;;;;;;;-1.00;100.00;98775.36;104487;1304;22626;-28
2021/12/06 06:20:22;;;;;;;68.50;19.70;;;;;;;-0.97;100.00;98774.73;104101;1307;22595;-30
2021/12/06 06:22:48;;;;;;;68.60;21.40;;;;;;;-0.95;100.00;98780.05;104516;1303;24140;-26
2021/12/06 06:25:15;;;;;;;50.70;15.20;;;;;;;-1.03;100.00;98783.08;104398;1304;24170;-27
2021/12/06 06:27:43;;;;;;;52.70;16.00;;;;;;;-1.15;100.00;98787.10;104423;1304;24217;-31
2021/12/06 06:30:09;;;;;;;52.90;16.80;;;;;;;-1.22;100.00;98794.42;104577;1304;24232;-30
2021/12/06 06:32:35;;;;;;;63.00;18.90;;;;;;;-1.19;100.00;98794.65;104116;1304;22548;-23
2021/12/06 06:35:01;;;;;;;65.70;20.70;;;;;;;-1.27;100.00;98794.36;104704;1304;22477;-28
2021/12/06 06:37:27;;;;;;;60.40;17.80;;;;;;;-1.36;100.00;98791.60;104669;1304;24167;-29
2021/12/06 06:39:53;;;;;;;53.30;13.90;;;;;;;-1.35;100.00;98794.20;104478;1304;22544;-29
2021/12/06 06:42:23;;;;;;;57.20;19.80;;;;;;;-1.27;100.00;98795.20;104827;1304;22553;-25
2021/12/06 06:44:51;;;;;;;56.80;15.70;;;;;;;-1.13;100.00;98800.95;104518;1304;24177;-25
2021/12/06 06:47:17;;;;;;;65.90;18.40;;;;;;;-1.00;100.00;98801.90;104837;1304;22739;-25
2021/12/06 06:49:43;;;;;;;75.20;21.90;;;;;;;-0.98;100.00;98806.10;104777;1304;22477;-24
2021/12/06 06:52:09;;;;;;;75.20;20.50;;;;;;;-0.91;100.00;98806.77;104828;1304;22692;-24
2021/12/06 06:54:36;;;;;;;56.30;18.30;;;;;;;-0.94;100.00;98806.79;104443;1307;22472;-25
2021/12/06 06:57:02;;;;;;;62.20;18.20;;;;;;;-1.07;100.00;98811.16;104244;1306;24171;-29
2021/12/06 06:59:28;;;;;;;53.90;16.20;;;;;;;-0.99;100.00;98819.55;104795;1304;22594;-28
2021/12/06 07:01:54;;;;;;;56.50;17.80;;;;;;;-0.82;100.00;98819.16;104275;1303;24018;-27
2021/12/06 07:04:20;;;;;;;55.20;16.50;;;;;;;-0.78;100.00;98822.45;103888;1301;22677;-28
2021/12/06 07:06:46;;;;;;;43.20;15.00;;;;;;;-0.90;100.00;98821.92;104268;1304;22464;-24
2021/12/06 07:09:12;;;;;;;41.80;14.00;;;;;;;-0.94;99.96;98825.23;104254;1304;24171;-24
2021/12/06 07:11:38;;;;;;;48.80;13.90;;;;;;;-1.03;100.00;98820.30;104187;1304;24204;-24
2021/12/06 07:14:04;;;;;;;36.10;13.90;;;;;;;-1.08;100.00;98825.34;104126;1308;24243;-28
2021/12/06 07:16:31;;;;;;;43.50;14.30;;;;;;;-1.07;100.00;98828.23;104166;1305;24380;-24
2021/12/06 07:18:57;;;;;;;37.70;13.60;;;;;;;-0.94;100.00;98830.06;104277;1309;24163;-24
2021/12/06 07:21:23;;;;;;;44.50;15.80;;;;;;;-0.86;100.00;98831.42;104106;1304;24385;-28
2021/12/06 07:23:51;;;;;;;49.00;17.40;;;;;;;-0.93;99.94;98832.81;104142;1304;24135;-28
2021/12/06 07:26:18;;;;;;;38.60;12.40;;;;;;;-0.96;99.94;98832.48;104185;1304;24121;-26
2021/12/06 07:28:44;;;;;;;45.90;13.40;;;;;;;-1.01;99.90;98830.63;104209;1309;24143;-24
2021/12/06 07:31:14;;;;;;;44.40;14.60;;;;;;;-0.88;99.99;98828.98;104234;1304;24221;-29
2021/12/06 07:33:41;;;;;;;37.30;13.40;;;;;;;-0.88;99.98;98830.21;104205;1305;22724;-25
2021/12/06 07:36:09;;;;;;;46.30;12.60;;;;;;;-0.87;99.87;98835.02;104119;1301;22477;-24
2021/12/06 07:38:37;;;;;;;45.50;14.00;;;;;;;-0.90;99.79;98834.20;104176;1304;24411;-24
2021/12/06 07:41:05;;;;;;;51.50;13.20;;;;;;;-0.90;99.78;98835.14;104194;1304;24276;-28
2021/12/06 07:43:31;;;;;;;45.00;18.10;;;;;;;-0.84;99.82;98836.02;104203;1304;24343;-28
2021/12/06 07:45:56;;;;;;;44.20;17.70;;;;;;;-0.86;99.80;98844.61;104142;1302;25773;-25
2021/12/06 07:48:22;;;;;;;53.00;17.60;;;;;;;-0.77;100.00;98842.02;104135;1304;24227;-25
2021/12/06 07:50:48;;;;;;;48.40;17.50;;;;;;;-0.69;100.00;98836.22;104205;1307;25912;-25
2021/12/06 07:53:14;;;;;;;50.00;16.60;;;;;;;-0.72;99.67;98837.58;104147;1310;24224;-30
2021/12/06 07:55:40;;;;;;;32.50;12.00;;;;;;;-0.76;99.22;98838.46;104168;1304;24147;-27
2021/12/06 07:58:07;;;;;;;32.90;10.90;;;;;;;-0.80;99.18;98837.91;103996;1305;24298;-31
2021/12/06 08:00:37;;;;;;;35.00;14.80;;;;;;;-0.78;99.28;98837.15;104282;1301;24247;-31
2021/12/06 08:03:02;;;;;;;33.80;13.00;;;;;;;-0.71;99.56;98836.73;104197;1304;24153;-25
2021/12/06 08:05:30;;;;;;;33.30;13.60;;;;;;;-0.63;99.44;98836.05;104215;1304;24158;-23
2021/12/06 08:08:01;;;;;;;37.80;12.80;;;;;;;-0.54;99.53;98839.46;104206;1308;22499;-24
2021/12/06 08:10:26;;;;;;;49.90;13.60;;;;;;;-0.47;99.72;98847.89;104219;1304;23116;-25
2021/12/06 08:12:52;;;;;;;49.90;17.80;;;;;;;-0.44;99.35;98850.48;103792;1307;22894;-25
2021/12/06 08:15:18;;;;;;;40.90;16.30;;;;;;;-0.51;99.10;98856.75;104175;1304;24167;-29
2021/12/06 08:17:44;;;;;;;34.90;12.90;;;;;;;-0.56;99.24;98861.52;104194;1304;24379;-25
2021/12/06 08:20:10;;;;;;;37.50;12.30;;;;;;;-0.48;99.44;98866.17;104118;1304;24217;-24
2021/12/06 08:22:36;;;;;;;19.80;8.80;;;;;;;-0.41;99.45;98866.21;104133;1310;24197;-29
2021/12/06 08:25:02;;;;;;;43.30;12.60;;;;;;;-0.40;98.64;98869.33;104243;1304;24144;-29
2021/12/06 08:27:28;;;;;;;28.60;12.70;;;;;;;-0.39;98.64;98871.69;104206;1304;24177;-25
2021/12/06 08:29:54;;;;;;;34.70;13.30;;;;;;;-0.28;99.03;98873.66;103899;1308;22476;-25
2021/12/06 08:32:20;;;;;;;41.30;15.20;;;;;;;-0.24;98.49;98877.17;104186;1303;24270;-27
2021/12/06 08:34:46;;;;;;;31.40;12.90;;;;;;;-0.25;97.98;98881.27;104213;1304;24313;-29
2021/12/06 08:37:12;;;;;;;29.90;10.60;;;;;;;-0.27;97.50;98886.38;104214;1304;24209;-25
2021/12/06 08:39:38;;;;;;;33.40;14.10;;;;;;;-0.44;97.44;98885.33;104257;1304;24289;-29
2021/12/06 08:42:05;;;;;;;33.50;13.60;;;;;;;-0.44;97.82;98889.02;104286;1304;24211;-26
2021/12/06 08:44:30;;;;;;;34.80;12.70;;;;;;;-0.44;98.25;98890.21;104178;1309;22444;-25
2021/12/06 08:46:56;;;;;;;27.70;10.50;;;;;;;-0.30;98.56;98888.95;104231;1304;24167;-29
2021/12/06 08:49:22;;;;;;;27.40;10.30;;;;;;;-0.17;98.40;98888.84;104184;1304;24395;-25
2021/12/06 08:51:50;;;;;;;30.40;11.70;;;;;;;-0.22;97.76;98890.13;104230;1304;24170;-25
2021/12/06 08:54:18;;;;;;;36.40;12.20;;;;;;;-0.18;97.41;98893.38;104464;1308;22700;-29
2021/12/06 08:56:45;;;;;;;36.80;13.30;;;;;;;-0.14;97.34;98894.17;104083;1310;22593;-29
2021/12/06 08:59:11;;;;;;;26.40;10.70;;;;;;;-0.12;96.89;98894.84;104328;1305;24181;-29
2021/12/06 09:01:37;;;;;;;23.20;9.50;;;;;;;-0.10;96.62;98892.60;104243;1308;22692;-29
2021/12/06 09:04:03;;;;;;;34.30;14.00;;;;;;;-0.03;97.05;98890.55;104242;1304;24385;-25
2021/12/06 09:06:30;;;;;;;34.50;12.90;;;;;;;0.10;97.89;98891.45;104189;1308;24152;-24
2021/12/06 09:08:55;;;;;;;21.90;10.50;;;;;;;0.24;97.70;98892.62;104265;1310;22716;-29
2021/12/06 09:11:21;;;;;;;21.10;8.90;;;;;;;0.12;96.15;98900.44;104152;1309;24233;-29
2021/12/06 09:13:47;;;;;;;38.10;12.20;;;;;;;0.24;96.52;98899.80;104282;1308;24171;-24
2021/12/06 09:16:14;;;;;;;32.90;11.70;;;;;;;0.33;96.34;98902.48;104138;1310;24254;-24
2021/12/06 09:18:40;;;;;;;22.50;11.50;;;;;;;0.39;95.79;98897.67;104142;1304;24292;-24
2021/12/06 09:21:09;;;;;;;23.70;10.10;;;;;;;0.54;96.18;98899.05;104350;1304;24273;-25
2021/12/06 09:23:35;;;;;;;27.10;12.30;;;;;;;0.60;95.20;98899.39;104187;1309;24163;-24
2021/12/06 09:26:01;;;;;;;33.70;12.60;;;;;;;0.54;94.18;98901.01;104176;1308;24327;-25
2021/12/06 09:28:28;;;;;;;21.20;11.00;;;;;;;0.53;94.03;98906.08;104163;1304;24160;-25
2021/12/06 09:30:53;;;;;;;24.60;9.50;;;;;;;0.62;94.52;98908.20;104220;1309;22480;-29
2021/12/06 09:33:20;;;;;;;29.20;8.90;;;;;;;0.70;94.55;98912.54;104189;1304;24390;-29
2021/12/06 09:35:47;;;;;;;17.70;10.10;;;;;;;0.56;93.72;98912.34;104204;1308;22453;-25
2021/12/06 09:38:15;;;;;;;21.90;10.50;;;;;;;0.53;94.18;98909.80;104016;1308;24280;-24
2021/12/06 09:40:43;;;;;;;22.80;11.50;;;;;;;0.40;93.88;98909.03;104205;1304;24218;-25
2021/12/06 09:43:10;;;;;;;31.90;11.70;;;;;;;0.54;94.98;98913.58;104308;1309;24177;-25
2021/12/06 09:45:36;;;;;;;18.90;9.20;;;;;;;0.64;95.77;98918.05;104158;1304;24310;-24
2021/12/06 09:48:03;;;;;;;21.40;8.60;;;;;;;0.69;95.48;98921.24;104159;1304;24162;-29
2021/12/06 09:50:33;;;;;;;16.60;9.00;;;;;;;0.70;95.02;98921.75;104171;1309;24227;-25
2021/12/06 09:53:01;;;;;;;29.60;10.30;;;;;;;0.72;94.94;98922.73;104191;1304;24162;-24
2021/12/06 09:55:29;;;;;;;30.60;10.20;;;;;;;0.56;94.28;98922.71;104098;1304;24404;-29
2021/12/06 09:57:55;;;;;;;29.20;12.00;;;;;;;0.30;93.82;98924.77;104149;1304;24282;-29
2021/12/06 10:00:22;;;;;;;24.90;12.50;;;;;;;0.28;94.76;98923.96;104143;1304;24314;-29
2021/12/06 10:02:50;;;;;;;24.60;10.30;;;;;;;0.47;95.90;98924.48;104227;1304;24298;-29
2021/12/06 10:05:16;;;;;;;19.30;11.00;;;;;;;0.58;95.67;98923.18;104218;1304;24267;-29
2021/12/06 10:07:41;;;;;;;31.40;11.90;;;;;;;0.28;94.60;98923.55;104227;1304;24306;-31
2021/12/06 10:10:08;;;;;;;25.30;9.40;;;;;;;0.28;94.78;98926.52;104346;1304;22699;-24
2021/12/06 10:12:33;;;;;;;23.30;10.60;;;;;;;0.17;94.52;98923.52;104060;1304;24204;-24
2021/12/06 10:15:02;;;;;;;16.10;8.90;;;;;;;0.27;95.05;98924.03;103990;1307;24174;-23
2021/12/06 10:17:29;;;;;;;22.90;10.50;;;;;;;0.38;95.12;98926.49;104288;1309;22435;-30
2021/12/06 10:19:55;;;;;;;27.70;10.90;;;;;;;0.48;95.92;98926.45;104248;1310;22582;-30
2021/12/06 10:22:21;;;;;;;21.80;11.20;;;;;;;0.54;95.72;98924.84;104076;1312;24234;-30
2021/12/06 10:24:52;;;;;;;24.20;10.10;;;;;;;0.51;95.09;98926.86;104282;1310;24123;-30
2021/12/06 10:27:18;;;;;;;23.30;10.10;;;;;;;0.57;95.11;98924.05;104577;1308;340611;-24
2021/12/06 10:29:48;;;;;;;22.00;10.70;;;;;;;0.56;94.86;98924.67;104188;1304;24289;-30
2021/12/06 10:32:16;;;;;;;21.00;10.10;;;;;;;0.52;94.49;98926.44;104295;1309;25273;-25
2021/12/06 10:34:44;;;;;;;26.20;11.20;;;;;;;0.65;95.39;98923.93;104178;1308;24163;-24
2021/12/06 10:37:22;;;;;;;20.10;10.40;;;;;;;0.70;94.59;98922.77;104468;1300;24137;-29
2021/12/06 10:39:52;;;;;;;30.00;12.40;;;;;;;0.70;94.50;98922.64;104647;1309;24177;-32
2021/12/06 10:42:24;;;;;;;26.60;11.60;;;;;;;0.59;94.17;98920.85;104627;1304;22554;-30
2021/12/06 10:44:51;;;;;;;19.00;9.60;;;;;;;0.41;93.69;98918.27;104560;1304;23900;-30
2021/12/06 10:47:16;;;;;;;21.90;11.30;;;;;;;0.33;94.06;98916.17;104012;1307;22581;-30
2021/12/06 10:49:46;;;;;;;28.40;12.10;;;;;;;0.48;94.44;98915.84;104636;1308;24276;-29
2021/12/06 10:52:19;;;;;;;24.10;13.20;;;;;;;0.49;94.72;98913.84;104790;1304;22444;-24
2021/12/06 10:54:48;;;;;;;27.30;11.50;;;;;;;0.17;94.45;98917.73;104863;1304;25384;-24
2021/12/06 10:57:16;;;;;;;25.10;9.50;;;;;;;0.26;95.84;98914.39;104530;1304;22479;-25
2021/12/06 10:59:42;;;;;;;26.00;12.30;;;;;;;0.35;94.95;98914.05;104232;1307;22483;-29
2021/12/06 11:02:10;;;;;;;18.60;7.90;;;;;;;0.24;95.28;98917.60;104518;1310;22542;-25
2021/12/06 11:04:38;;;;;;;30.30;13.20;;;;;;;0.30;95.62;98919.79;104555;1309;22470;-30
2021/12/06 11:07:05;;;;;;;20.40;10.30;;;;;;;0.36;96.08;98918.61;104569;1310;24269;-30
2021/12/06 11:09:34;;;;;;;19.60;10.60;;;;;;;0.43;95.87;98916.51;104500;1309;24286;-25
2021/12/06 11:12:01;;;;;;;21.50;11.10;;;;;;;0.50;95.71;98918.20;104431;1310;24146;-30
2021/12/06 11:14:30;;;;;;;19.10;9.90;;;;;;;0.58;96.19;98918.81;104571;1309;22527;-25
2021/12/06 11:16:59;;;;;;;12.70;6.90;;;;;;;0.49;94.62;98923.22;104473;1309;23772;-24
2021/12/06 11:19:26;;;;;;;25.60;11.80;;;;;;;0.31;94.48;98919.06;104010;1310;24156;-31
2021/12/06 11:21:54;;;;;;;19.50;10.90;;;;;;;0.21;94.87;98918.71;104594;1310;24133;-31